createdAt,value
2019-04-29T00:02:25.361Z,99673.36
2019-04-29T00:04:55.279Z,99666.44
2019-04-29T00:07:24.611Z,99672.88
2019-04-29T00:09:53.766Z,99671.70
2019-04-29T00:12:23.962Z,99671.41
2019-04-29T00:15:00.150Z,99672.52
2019-04-29T00:17:53.273Z,99668.53
2019-04-29T00:20:32.977Z,99675.55
2019-04-29T00:23:02.627Z,99681.06
2019-04-29T00:25:32.093Z,99678.52
2019-04-29T00:28:01.251Z,99678.55
2019-04-29T00:30:34.190Z,99683.20
2019-04-29T00:33:04.348Z,99685.73
2019-04-29T00:35:33.557Z,99687.33
2019-04-29T00:38:11.495Z,99695.61
2019-04-29T00:40:58.604Z,99695.84
2019-04-29T00:43:39.230Z,99696.92
2019-04-29T00:46:09.164Z,99704.02
2019-04-29T00:48:38.846Z,99702.88
2019-04-29T00:51:08.683Z,99705.97
2019-04-29T00:53:39.091Z,99705.67
2019-04-29T00:56:08.367Z,99705.34
2019-04-29T00:58:38.059Z,99707.52
2019-04-29T01:01:12.411Z,99710.09
2019-04-29T01:03:41.539Z,99705.53
2019-04-29T01:06:11.086Z,99710.38
2019-04-29T01:08:41.013Z,99722.36
2019-04-29T01:11:12.376Z,99718.02
2019-04-29T01:13:41.814Z,99717.51
2019-04-29T01:16:13.003Z,99719.55
2019-04-29T01:18:42.516Z,99718.36
2019-04-29T01:21:12.496Z,99718.02
2019-04-29T01:23:41.617Z,99713.84
2019-04-29T01:26:29.289Z,99712.77
2019-04-29T01:28:58.845Z,99714.19
2019-04-29T01:31:31.723Z,99718.58
2019-04-29T01:34:08.057Z,99722.01
2019-04-29T01:36:44.953Z,99723.27
2019-04-29T01:39:15.339Z,99720.42
2019-04-29T01:41:50.759Z,99722.64
2019-04-29T01:44:21.374Z,99722.58
2019-04-29T01:46:51.635Z,99724.98
2019-04-29T01:49:21.835Z,99728.56
2019-04-29T01:51:51.011Z,99733.23
2019-04-29T01:54:20.155Z,99725.98
2019-04-29T01:56:49.436Z,99736.28
2019-04-29T01:59:18.743Z,99736.33
2019-04-29T02:01:48.807Z,99735.28
2019-04-29T02:04:18.520Z,99730.50
2019-04-29T02:06:48.362Z,99735.55
2019-04-29T02:09:32.371Z,99743.22
2019-04-29T02:12:03.345Z,99745.29
2019-04-29T02:14:32.585Z,99746.09
2019-04-29T02:17:02.881Z,99740.81
2019-04-29T02:19:32.804Z,99744.63
2019-04-29T02:22:11.324Z,99745.03
2019-04-29T02:24:44.189Z,99744.93
2019-04-29T02:27:14.185Z,99745.06
2019-04-29T02:29:44.329Z,99737.66
2019-04-29T02:32:14.308Z,99738.77
2019-04-29T02:34:43.899Z,99737.47
2019-04-29T02:37:15.501Z,99742.62
2019-04-29T02:39:50.794Z,99744.08
2019-04-29T02:42:43.635Z,99743.58
2019-04-29T02:45:20.723Z,99744.59
2019-04-29T02:47:50.466Z,99746.44
2019-04-29T02:50:20.404Z,99738.83
2019-04-29T02:52:49.579Z,99744.13
2019-04-29T02:55:24.824Z,99743.02
2019-04-29T02:58:12.285Z,99747.00
2019-04-29T03:01:01.195Z,99746.05
2019-04-29T03:03:47.741Z,99746.66
2019-04-29T03:06:17.865Z,99749.73
2019-04-29T03:08:47.056Z,99746.66
2019-04-29T03:11:17.892Z,99747.91
2019-04-29T03:13:47.077Z,99741.36
2019-04-29T03:16:16.631Z,99741.96
2019-04-29T03:18:50.405Z,99734.34
2019-04-29T03:21:28.053Z,99726.05
2019-04-29T03:23:57.555Z,99733.69
2019-04-29T03:26:29.762Z,99734.48
2019-04-29T03:29:01.747Z,99733.22
2019-04-29T03:31:38.424Z,99736.81
2019-04-29T03:34:02.816Z,99738.33
2019-04-29T03:36:35.444Z,99735.61
2019-04-29T03:39:06.386Z,99737.83
2019-04-29T03:41:35.538Z,99742.57
2019-04-29T03:44:04.719Z,99744.92
2019-04-29T03:46:34.624Z,99741.45
2019-04-29T03:49:03.808Z,99741.69
2019-04-29T03:51:33.259Z,99736.47
2019-04-29T03:54:02.696Z,99738.12
2019-04-29T03:56:31.913Z,99740.29
2019-04-29T03:59:01.371Z,99744.06
2019-04-29T04:01:40.437Z,99746.31
2019-04-29T04:04:24.207Z,99746.87
2019-04-29T04:07:16.023Z,99756.55
2019-04-29T04:09:45.188Z,99756.30
2019-04-29T04:12:14.531Z,99761.48
2019-04-29T04:14:49.580Z,99762.53
2019-04-29T04:17:37.261Z,99767.48
2019-04-29T04:20:07.182Z,99762.15
2019-04-29T04:22:48.884Z,99763.28
2019-04-29T04:25:18.645Z,99764.53
2019-04-29T04:27:49.048Z,99764.31
2019-04-29T04:30:18.746Z,99774.34
2019-04-29T04:32:47.878Z,99772.22
2019-04-29T04:35:17.574Z,99788.00
2019-04-29T04:37:46.701Z,99782.66
2019-04-29T04:40:19.863Z,99780.48
2019-04-29T04:42:49.030Z,99781.95
2019-04-29T04:45:20.623Z,99781.53
2019-04-29T04:47:49.755Z,99780.08
2019-04-29T04:50:18.915Z,99783.38
2019-04-29T04:52:48.057Z,99789.73
2019-04-29T04:55:20.412Z,99783.45
2019-04-29T04:57:49.571Z,99784.66
2019-04-29T05:00:22.288Z,99784.22
2019-04-29T05:02:51.441Z,99783.81
2019-04-29T05:05:20.606Z,99792.70
2019-04-29T05:07:50.425Z,99794.83
2019-04-29T05:10:19.854Z,99796.70
2019-04-29T05:12:49.540Z,99798.77
2019-04-29T05:15:18.945Z,99800.32
2019-04-29T05:17:53.037Z,99804.52
2019-04-29T05:20:21.278Z,99807.95
2019-04-29T05:23:00.064Z,99813.09
2019-04-29T05:25:41.676Z,99808.45
2019-04-29T05:28:11.164Z,99814.86
2019-04-29T05:30:40.873Z,99820.14
2019-04-29T05:33:10.524Z,99812.23
2019-04-29T05:35:51.650Z,99822.06
2019-04-29T05:38:48.901Z,99820.57
2019-04-29T05:41:19.642Z,99824.92
2019-04-29T05:44:00.457Z,99819.98
2019-04-29T05:46:43.030Z,99818.91
2019-04-29T05:49:17.366Z,99812.24
2019-04-29T05:52:19.251Z,99817.59
2019-04-29T05:54:48.717Z,99816.89
2019-04-29T05:57:20.443Z,99828.53
2019-04-29T05:59:50.533Z,99828.98
2019-04-29T06:02:19.547Z,99832.80
2019-04-29T06:04:52.331Z,99836.13
2019-04-29T06:07:21.643Z,99833.63
2019-04-29T06:09:52.388Z,99837.39
2019-04-29T06:12:21.567Z,99836.71
2019-04-29T06:14:51.054Z,99833.52
2019-04-29T06:17:21.946Z,99838.05
2019-04-29T06:19:51.326Z,99848.70
2019-04-29T06:22:23.270Z,99854.31
2019-04-29T06:24:52.684Z,99849.78
2019-04-29T06:27:21.857Z,99853.19
2019-04-29T06:29:51.004Z,99853.46
2019-04-29T06:32:24.395Z,99856.80
2019-04-29T06:34:52.199Z,99862.28
2019-04-29T06:37:21.373Z,99859.96
2019-04-29T06:39:51.804Z,99863.39
2019-04-29T06:42:20.978Z,99861.34
2019-04-29T06:44:50.905Z,99858.70
2019-04-29T06:47:20.733Z,99861.22
2019-04-29T06:49:50.653Z,99865.80
2019-04-29T06:52:20.129Z,99865.95
2019-04-29T06:54:49.555Z,99858.48
2019-04-29T06:57:18.735Z,99856.66
2019-04-29T06:59:48.673Z,99857.13
2019-04-29T07:02:18.801Z,99857.86
2019-04-29T07:04:48.294Z,99855.55
2019-04-29T07:07:17.734Z,99846.36
2019-04-29T07:09:47.129Z,99841.69
2019-04-29T07:12:17.110Z,99834.09
2019-04-29T07:14:46.627Z,99828.02
2019-04-29T07:17:16.837Z,99826.39
2019-04-29T07:19:46.276Z,99820.58
2019-04-29T07:22:20.898Z,99823.51
2019-04-29T07:24:48.993Z,99815.85
2019-04-29T07:27:18.716Z,99818.40
2019-04-29T07:29:48.153Z,99815.18
2019-04-29T07:32:18.086Z,99809.99
2019-04-29T07:34:48.364Z,99801.53
2019-04-29T07:37:17.577Z,99809.98
2019-04-29T07:39:47.240Z,99803.45
2019-04-29T07:42:16.642Z,99804.61
2019-04-29T07:45:04.068Z,99795.13
2019-04-29T07:47:33.717Z,99792.84
2019-04-29T07:50:02.899Z,99788.81
2019-04-29T07:52:33.239Z,99786.09
2019-04-29T07:55:02.634Z,99779.17
2019-04-29T07:57:35.994Z,99772.00
2019-04-29T08:00:16.170Z,99780.23
2019-04-29T08:02:47.388Z,99770.72
2019-04-29T08:05:17.196Z,99773.62
2019-04-29T08:07:47.707Z,99767.72
2019-04-29T08:10:28.649Z,99765.11
2019-04-29T08:12:56.344Z,99767.45
2019-04-29T08:15:25.809Z,99767.09
2019-04-29T08:18:06.875Z,99760.25
2019-04-29T08:20:39.948Z,99754.47
2019-04-29T08:23:10.112Z,99747.47
2019-04-29T08:25:45.299Z,99745.89
2019-04-29T08:28:14.629Z,99732.95
2019-04-29T08:30:45.913Z,99729.54
2019-04-29T08:33:16.461Z,99724.74
2019-04-29T08:35:46.850Z,99729.02
2019-04-29T08:38:16.291Z,99733.36
2019-04-29T08:40:49.987Z,99725.80
2019-04-29T08:43:38.819Z,99723.22
2019-04-29T08:46:14.565Z,99724.91
2019-04-29T08:48:45.907Z,99712.61
2019-04-29T08:51:14.629Z,99718.20
2019-04-29T08:53:43.807Z,99712.10
2019-04-29T08:56:14.818Z,99717.67
2019-04-29T08:58:49.015Z,99707.81
2019-04-29T09:01:15.782Z,99708.62
2019-04-29T09:03:45.013Z,99696.30
2019-04-29T09:06:15.670Z,99704.94
2019-04-29T09:08:59.256Z,99700.41
2019-04-29T09:11:26.209Z,99696.32
2019-04-29T09:13:55.944Z,99696.34
2019-04-29T09:16:26.393Z,99683.18
2019-04-29T09:18:55.567Z,99678.44
2019-04-29T09:21:25.296Z,99671.41
2019-04-29T09:23:55.341Z,99681.23
2019-04-29T09:26:43.492Z,99671.98
2019-04-29T09:29:31.334Z,99666.85
2019-04-29T09:32:00.793Z,99665.95
2019-04-29T09:34:30.433Z,99666.03
2019-04-29T09:36:59.654Z,99667.66
2019-04-29T09:39:42.026Z,99652.16
2019-04-29T09:42:19.159Z,99651.92
2019-04-29T09:45:19.473Z,99655.55
2019-04-29T09:47:48.459Z,99643.59
2019-04-29T09:50:17.970Z,99644.53
2019-04-29T09:52:47.193Z,99634.98
2019-04-29T09:55:17.115Z,99639.59
2019-04-29T09:57:46.284Z,99630.84
2019-04-29T10:00:27.564Z,99627.94
2019-04-29T10:03:05.164Z,99621.78
2019-04-29T10:05:40.383Z,99616.80
2019-04-29T10:08:10.210Z,99626.47
2019-04-29T10:10:39.639Z,99626.27
2019-04-29T10:13:11.036Z,99630.55
2019-04-29T10:16:00.113Z,99622.19
2019-04-29T10:18:33.825Z,99620.95
2019-04-29T10:21:06.465Z,99616.45
2019-04-29T10:23:36.357Z,99611.78
2019-04-29T10:26:05.810Z,99608.98
2019-04-29T10:28:36.668Z,99614.02
2019-04-29T10:31:07.896Z,99611.89
2019-04-29T10:33:37.092Z,99605.14
2019-04-29T10:36:06.980Z,99603.78
2019-04-29T10:38:44.979Z,99593.59
2019-04-29T10:41:40.407Z,99596.61
2019-04-29T10:44:40.769Z,99599.42
2019-04-29T10:47:20.171Z,99586.62
2019-04-29T10:50:15.442Z,99584.95
2019-04-29T10:52:43.481Z,99583.20
2019-04-29T10:55:14.194Z,99576.19
2019-04-29T10:57:49.937Z,99578.96
2019-04-29T11:00:36.844Z,99576.91
2019-04-29T11:03:06.236Z,99575.20
2019-04-29T11:06:02.082Z,99566.98
2019-04-29T11:08:44.490Z,99563.67
2019-04-29T11:11:23.036Z,99562.95
2019-04-29T11:13:50.102Z,99569.64
2019-04-29T11:16:18.034Z,99555.23
2019-04-29T11:18:48.600Z,99555.89
2019-04-29T11:21:17.753Z,99547.63
2019-04-29T11:24:13.045Z,99546.03
2019-04-29T11:26:50.213Z,99546.58
2019-04-29T11:29:42.556Z,99536.19
2019-04-29T11:32:19.122Z,99532.21
2019-04-29T11:35:03.173Z,99525.19
2019-04-29T11:37:33.346Z,99517.70
2019-04-29T11:40:02.550Z,99516.61
2019-04-29T11:42:36.786Z,99509.91
2019-04-29T11:45:09.584Z,99507.15
2019-04-29T11:47:39.844Z,99503.86
2019-04-29T11:50:31.298Z,99501.64
2019-04-29T11:53:00.558Z,99499.57
2019-04-29T11:55:31.201Z,99504.59
2019-04-29T11:58:06.118Z,99502.61
2019-04-29T12:01:10.352Z,99492.44
2019-04-29T12:03:51.472Z,99494.78
2019-04-29T12:06:20.841Z,99494.34
2019-04-29T12:08:53.161Z,99494.95
2019-04-29T12:11:22.517Z,99493.96
2019-04-29T12:14:16.233Z,99487.71
2019-04-29T12:16:49.198Z,99489.14
2019-04-29T12:19:31.956Z,99478.81
2019-04-29T12:22:04.849Z,99478.29
2019-04-29T12:24:37.800Z,99471.63
2019-04-29T12:27:09.465Z,99472.95
2019-04-29T12:29:40.814Z,99473.08
2019-04-29T12:32:24.437Z,99467.75
2019-04-29T12:35:03.355Z,99471.76
2019-04-29T12:38:05.978Z,99475.48
2019-04-29T12:40:50.165Z,99473.58
2019-04-29T12:43:48.497Z,99475.64
2019-04-29T12:46:36.373Z,99471.38
2019-04-29T12:49:08.585Z,99467.41
2019-04-29T12:51:36.639Z,99469.19
2019-04-29T12:54:06.951Z,99460.22
2019-04-29T12:56:38.254Z,99455.61
2019-04-29T12:59:07.785Z,99460.34
2019-04-29T13:02:00.366Z,99457.06
2019-04-29T13:04:49.897Z,99451.11
2019-04-29T13:07:25.540Z,99447.12
2019-04-29T13:09:57.126Z,99445.28
2019-04-29T13:12:30.269Z,99450.25
2019-04-29T13:15:13.811Z,99441.52
2019-04-29T13:18:02.765Z,99436.67
2019-04-29T13:20:22.638Z,99443.45
2019-04-29T13:22:52.474Z,99442.23
2019-04-29T13:25:21.633Z,99439.67
2019-04-29T13:27:56.076Z,99428.52
2019-04-29T13:30:24.230Z,99433.86
2019-04-29T13:32:53.432Z,99426.92
2019-04-29T13:35:22.692Z,99426.94
2019-04-29T13:37:53.186Z,99426.47
2019-04-29T13:40:39.474Z,99427.67
2019-04-29T13:43:09.806Z,99417.22
2019-04-29T13:45:45.544Z,99424.80
2019-04-29T13:48:53.925Z,99422.03
2019-04-29T13:51:09.353Z,99429.70
2019-04-29T13:53:40.047Z,99429.28
2019-04-29T13:56:34.949Z,99436.04
2019-04-29T13:58:52.235Z,99434.88
2019-04-29T14:01:59.909Z,99428.58
2019-04-29T14:04:28.632Z,99425.30
2019-04-29T14:06:58.462Z,99417.58
2019-04-29T14:09:28.203Z,99413.42
2019-04-29T14:12:02.013Z,99421.55
2019-04-29T14:14:29.464Z,99416.22
2019-04-29T14:17:11.893Z,99423.13
2019-04-29T14:19:44.781Z,99428.13
2019-04-29T14:22:00.422Z,99431.08
2019-04-29T14:24:29.618Z,99434.27
2019-04-29T14:27:00.087Z,99439.16
2019-04-29T14:29:30.337Z,99445.28
2019-04-29T14:32:01.271Z,99446.58
2019-04-29T14:34:42.704Z,99447.42
2019-04-29T14:37:21.283Z,99447.39
2019-04-29T14:39:43.212Z,99452.16
2019-04-29T14:42:21.238Z,99448.86
2019-04-29T14:45:12.814Z,99455.73
2019-04-29T14:47:54.810Z,99458.87
2019-04-29T14:50:24.640Z,99462.08
2019-04-29T14:52:54.093Z,99458.87
2019-04-29T14:55:25.501Z,99466.06
2019-04-29T14:57:57.839Z,99470.50
2019-04-29T15:00:41.912Z,99469.17
2019-04-29T15:03:17.174Z,99474.97
2019-04-29T15:05:47.143Z,99472.89
2019-04-29T15:08:16.327Z,99475.78
2019-04-29T15:10:47.501Z,99481.30
2019-04-29T15:13:21.194Z,99479.52
2019-04-29T15:16:04.483Z,99479.33
2019-04-29T15:18:49.690Z,99478.98
2019-04-29T15:21:32.650Z,99475.78
2019-04-29T15:24:08.081Z,99477.77
2019-04-29T15:26:37.208Z,99485.68
2019-04-29T15:29:13.491Z,99486.91
2019-04-29T15:31:47.157Z,99487.50
2019-04-29T15:34:14.555Z,99486.18
2019-04-29T15:36:44.299Z,99491.33
2019-04-29T15:39:16.296Z,99506.77
2019-04-29T15:41:54.640Z,99507.53
2019-04-29T15:44:24.297Z,99500.81
2019-04-29T15:47:03.847Z,99512.73
2019-04-29T15:49:33.090Z,99526.09
2019-04-29T15:52:03.183Z,99524.18
2019-04-29T15:54:33.388Z,99511.64
2019-04-29T15:57:09.273Z,99507.35
2019-04-29T15:59:48.592Z,99504.53
2019-04-29T16:02:07.609Z,99504.38
2019-04-29T16:04:42.179Z,99507.67
2019-04-29T16:07:29.230Z,99499.72
2019-04-29T16:10:21.883Z,99490.91
2019-04-29T16:12:54.121Z,99493.41
2019-04-29T16:15:26.541Z,99490.01
2019-04-29T16:17:56.290Z,99493.24
2019-04-29T16:20:25.483Z,99495.28
2019-04-29T16:23:00.557Z,99489.43
2019-04-29T16:25:25.567Z,99486.47
2019-04-29T16:27:54.737Z,99483.17
2019-04-29T16:30:25.966Z,99485.45
2019-04-29T16:32:55.952Z,99482.59
2019-04-29T16:35:27.072Z,99482.49
2019-04-29T16:37:56.576Z,99480.69
2019-04-29T16:40:33.934Z,99484.13
2019-04-29T16:43:18.453Z,99481.75
2019-04-29T16:46:01.451Z,99481.20
2019-04-29T16:48:30.644Z,99486.51
2019-04-29T16:51:00.197Z,99486.51
2019-04-29T16:53:30.536Z,99486.03
2019-04-29T16:55:59.692Z,99481.20
2019-04-29T16:58:29.285Z,99489.18
2019-04-29T17:01:00.663Z,99488.52
2019-04-29T17:03:30.847Z,99498.81
2019-04-29T17:06:01.858Z,99493.81
2019-04-29T17:08:40.512Z,99499.69
2019-04-29T17:11:19.794Z,99502.23
2019-04-29T17:13:49.501Z,99498.74
2019-04-29T17:16:27.561Z,99502.25
2019-04-29T17:18:56.894Z,99509.98
2019-04-29T17:21:41.442Z,99519.28
2019-04-29T17:24:10.987Z,99526.56
2019-04-29T17:26:58.966Z,99525.69
2019-04-29T17:29:49.455Z,99527.59
2019-04-29T17:32:56.762Z,99526.83
2019-04-29T17:35:28.650Z,99529.30
2019-04-29T17:37:59.791Z,99535.54
2019-04-29T17:40:30.828Z,99526.17
2019-04-29T17:43:27.333Z,99524.75
2019-04-29T17:46:14.003Z,99530.97
2019-04-29T17:48:53.155Z,99544.52
2019-04-29T17:51:20.602Z,99547.27
2019-04-29T17:53:55.402Z,99531.69
2019-04-29T17:56:31.255Z,99535.97
2019-04-29T17:59:06.839Z,99545.47
2019-04-29T18:02:10.169Z,99559.37
2019-04-29T18:04:58.437Z,99568.65
2019-04-29T18:07:40.560Z,99574.42
2019-04-29T18:10:40.032Z,99575.84
2019-04-29T18:13:08.489Z,99571.91
2019-04-29T18:15:57.904Z,99569.53
2019-04-29T18:18:17.485Z,99568.40
2019-04-29T18:21:06.421Z,99577.69
2019-04-29T18:23:56.766Z,99591.22
2019-04-29T18:26:36.536Z,99595.47
2019-04-29T18:29:08.064Z,99600.52
2019-04-29T18:31:37.754Z,99608.33
2019-04-29T18:34:07.255Z,99619.12
2019-04-29T18:36:36.771Z,99621.00
2019-04-29T18:39:10.039Z,99631.84
2019-04-29T18:41:39.246Z,99635.42
2019-04-29T18:44:18.739Z,99642.15
2019-04-29T18:46:45.906Z,99648.90
2019-04-29T18:49:13.248Z,99656.89
2019-04-29T18:51:43.521Z,99650.95
2019-04-29T18:54:13.698Z,99650.22
2019-04-29T18:56:43.198Z,99652.34
2019-04-29T18:59:12.373Z,99657.87
2019-04-29T19:01:42.127Z,99660.17
2019-04-29T19:04:28.676Z,99665.96
2019-04-29T19:07:02.074Z,99663.20
2019-04-29T19:09:32.158Z,99669.53
2019-04-29T19:12:01.616Z,99682.41
2019-04-29T19:14:31.532Z,99684.38
2019-04-29T19:17:01.492Z,99687.13
2019-04-29T19:19:37.793Z,99689.67
2019-04-29T19:22:10.133Z,99697.23
2019-04-29T19:24:40.681Z,99699.41
2019-04-29T19:27:10.550Z,99701.71
2019-04-29T19:29:43.192Z,99699.03
2019-04-29T19:32:13.008Z,99698.65
2019-04-29T19:34:43.579Z,99700.00
2019-04-29T19:37:17.069Z,99692.06
2019-04-29T19:39:46.232Z,99703.77
2019-04-29T19:42:28.583Z,99693.65
2019-04-29T19:44:46.910Z,99693.73
2019-04-29T19:47:16.957Z,99698.70
2019-04-29T19:49:48.122Z,99701.41
2019-04-29T19:52:28.026Z,99702.82
2019-04-29T19:54:51.032Z,99697.41
2019-04-29T19:57:20.698Z,99706.17
2019-04-29T19:59:53.120Z,99702.52
2019-04-29T20:02:23.237Z,99708.76
2019-04-29T20:05:00.624Z,99702.82
2019-04-29T20:07:31.416Z,99702.44
2019-04-29T20:10:05.844Z,99697.52
2019-04-29T20:12:34.712Z,99703.61
2019-04-29T20:15:08.505Z,99704.63
2019-04-29T20:18:11.211Z,99706.72
2019-04-29T20:21:08.074Z,99705.48
2019-04-29T20:23:29.063Z,99706.67
2019-04-29T20:26:12.938Z,99711.31
2019-04-29T20:28:29.626Z,99709.05
2019-04-29T20:31:15.466Z,99710.08
2019-04-29T20:33:30.633Z,99712.66
2019-04-29T20:36:02.385Z,99711.53
2019-04-29T20:38:35.146Z,99706.23
2019-04-29T20:41:07.687Z,99705.47
2019-04-29T20:43:39.254Z,99701.88
2019-04-29T20:46:08.566Z,99704.92
2019-04-29T20:48:39.931Z,99710.38
2019-04-29T20:51:13.766Z,99701.67
2019-04-29T20:53:46.382Z,99693.48
2019-04-29T20:56:23.746Z,99700.19
2019-04-29T20:58:46.943Z,99699.02
2019-04-29T21:01:30.117Z,99697.84
2019-04-29T21:03:59.371Z,99693.02
2019-04-29T21:06:28.603Z,99696.78
2019-04-29T21:08:57.922Z,99696.09
2019-04-29T21:11:35.538Z,99693.66
2019-04-29T21:14:15.717Z,99697.25
2019-04-29T21:16:47.119Z,99699.42
2019-04-29T21:19:21.498Z,99702.70
2019-04-29T21:21:52.429Z,99696.46
2019-04-29T21:24:21.741Z,99694.11
2019-04-29T21:26:50.993Z,99693.95
2019-04-29T21:29:20.171Z,99693.81
2019-04-29T21:31:50.868Z,99698.95
2019-04-29T21:34:25.493Z,99696.13
2019-04-29T21:37:15.317Z,99701.42
2019-04-29T21:40:13.904Z,99699.81
2019-04-29T21:42:47.400Z,99690.63
2019-04-29T21:45:19.477Z,99693.66
2019-04-29T21:47:53.497Z,99702.92
2019-04-29T21:50:20.362Z,99694.52
2019-04-29T21:52:50.131Z,99687.98
2019-04-29T21:55:20.739Z,99684.17
2019-04-29T21:57:54.528Z,99682.13
2019-04-29T22:00:25.690Z,99683.38
2019-04-29T22:02:55.384Z,99680.52
2019-04-29T22:05:25.375Z,99681.59
2019-04-29T22:07:55.614Z,99684.66
2019-04-29T22:10:28.978Z,99686.77
2019-04-29T22:13:01.906Z,99685.18
2019-04-29T22:15:32.418Z,99694.83
2019-04-29T22:18:01.313Z,99697.91
2019-04-29T22:20:28.927Z,99703.50
2019-04-29T22:22:58.568Z,99696.80
2019-04-29T22:25:28.031Z,99702.38
2019-04-29T22:27:57.506Z,99696.11
2019-04-29T22:30:26.942Z,99696.11
2019-04-29T22:32:58.673Z,99702.73
2019-04-29T22:35:32.730Z,99699.06
2019-04-29T22:37:59.035Z,99703.03
2019-04-29T22:40:29.222Z,99704.65
2019-04-29T22:43:10.056Z,99707.08
2019-04-29T22:45:36.862Z,99698.12
2019-04-29T22:48:16.370Z,99696.63
2019-04-29T22:50:38.201Z,99699.42
2019-04-29T22:53:08.974Z,99700.59
2019-04-29T22:55:39.193Z,99695.00
2019-04-29T22:58:10.107Z,99697.18
2019-04-29T23:00:39.414Z,99706.98
2019-04-29T23:03:08.964Z,99706.36
2019-04-29T23:05:38.412Z,99698.50
2019-04-29T23:08:08.100Z,99701.23
2019-04-29T23:10:37.101Z,99697.99
2019-04-29T23:13:07.081Z,99694.80
2019-04-29T23:15:36.263Z,99699.33
2019-04-29T23:18:06.654Z,99695.97
2019-04-29T23:20:59.555Z,99699.16
2019-04-29T23:23:38.362Z,99692.72
2019-04-29T23:26:08.044Z,99692.17
2019-04-29T23:28:37.216Z,99694.27
2019-04-29T23:31:06.679Z,99693.71
2019-04-29T23:33:36.531Z,99689.14
2019-04-29T23:36:09.601Z,99693.71
2019-04-29T23:38:38.588Z,99684.50
2019-04-29T23:41:07.778Z,99687.05
2019-04-29T23:43:37.499Z,99691.32
2019-04-29T23:46:09.002Z,99691.96
2019-04-29T23:48:39.875Z,99687.91
2019-04-29T23:51:11.138Z,99689.70
2019-04-29T23:53:40.276Z,99689.84
2019-04-29T23:56:09.955Z,99685.34
2019-04-29T23:58:47.119Z,99687.05
